createdAt,value
2017-10-10T00:00:59.072Z,81.34
2017-10-10T00:02:04.833Z,81.42
2017-10-10T00:03:11.365Z,81.54
2017-10-10T00:04:17.141Z,81.72
2017-10-10T00:05:22.730Z,81.77
2017-10-10T00:06:28.510Z,81.86
2017-10-10T00:07:34.060Z,81.99
2017-10-10T00:08:40.603Z,81.75
2017-10-10T00:09:47.331Z,81.51
2017-10-10T00:10:53.181Z,81.50
2017-10-10T00:11:59.968Z,81.17
2017-10-10T00:13:05.735Z,81.07
2017-10-10T00:14:12.086Z,81.04
2017-10-10T00:15:18.616Z,81.11
2017-10-10T00:16:24.834Z,81.37
2017-10-10T00:17:30.859Z,81.42
2017-10-10T00:18:37.026Z,81.68
2017-10-10T00:19:42.846Z,81.74
2017-10-10T00:20:49.579Z,81.82
2017-10-10T00:21:56.432Z,81.73
2017-10-10T00:23:02.347Z,81.58
2017-10-10T00:24:08.318Z,81.55
2017-10-10T00:25:14.205Z,81.57
2017-10-10T00:26:21.085Z,81.68
2017-10-10T00:27:27.973Z,81.58
2017-10-10T00:28:34.165Z,81.70
2017-10-10T00:29:40.070Z,81.67
2017-10-10T00:30:46.118Z,81.59
2017-10-10T00:31:52.106Z,81.95
2017-10-10T00:32:58.696Z,81.92
2017-10-10T00:34:05.226Z,81.77
2017-10-10T00:35:12.505Z,81.88
2017-10-10T00:36:18.308Z,82.01
2017-10-10T00:37:24.085Z,82.09
2017-10-10T00:38:29.869Z,82.16
2017-10-10T00:39:36.405Z,82.35
2017-10-10T00:40:42.188Z,82.10
2017-10-10T00:41:47.987Z,82.10
2017-10-10T00:42:53.787Z,81.89
2017-10-10T00:43:59.579Z,81.89
2017-10-10T00:45:05.352Z,81.96
2017-10-10T00:46:11.117Z,82.04
2017-10-10T00:47:16.884Z,81.83
2017-10-10T00:48:22.467Z,81.75
2017-10-10T00:49:28.263Z,81.65
2017-10-10T00:50:34.020Z,81.90
2017-10-10T00:51:39.787Z,81.89
2017-10-10T00:52:45.558Z,81.72
2017-10-10T00:53:51.407Z,81.70
2017-10-10T00:54:57.213Z,81.92
2017-10-10T00:56:03.113Z,81.95
2017-10-10T00:57:08.173Z,82.17
2017-10-10T00:58:14.044Z,82.27
2017-10-10T00:59:19.138Z,82.13
2017-10-10T01:00:24.037Z,82.15
2017-10-10T01:01:29.813Z,82.08
2017-10-10T01:02:36.362Z,82.06
2017-10-10T01:03:42.695Z,82.08
2017-10-10T01:04:48.460Z,82.29
2017-10-10T01:05:54.264Z,82.32
2017-10-10T01:07:00.098Z,82.35
2017-10-10T01:08:05.860Z,82.01
2017-10-10T01:09:11.520Z,81.99
2017-10-10T01:10:17.402Z,82.14
2017-10-10T01:11:24.113Z,81.90
2017-10-10T01:12:29.868Z,81.95
2017-10-10T01:13:36.400Z,82.09
2017-10-10T01:14:42.317Z,82.20
2017-10-10T01:15:48.079Z,82.20
2017-10-10T01:16:53.872Z,82.25
2017-10-10T01:18:00.470Z,82.11
2017-10-10T01:19:05.889Z,82.18
2017-10-10T01:20:11.328Z,82.32
2017-10-10T01:21:16.533Z,82.25
2017-10-10T01:22:22.457Z,82.13
2017-10-10T01:23:27.880Z,82.08
2017-10-10T01:24:34.065Z,81.89
2017-10-10T01:25:40.029Z,81.91
2017-10-10T01:26:45.800Z,81.91
2017-10-10T01:27:50.914Z,81.75
2017-10-10T01:28:56.437Z,81.92
2017-10-10T01:30:01.872Z,81.93
2017-10-10T01:31:07.705Z,82.07
2017-10-10T01:32:13.120Z,81.97
2017-10-10T01:33:19.706Z,81.93
2017-10-10T01:34:24.942Z,81.97
2017-10-10T01:35:30.389Z,81.91
2017-10-10T01:36:35.467Z,82.06
2017-10-10T01:37:41.651Z,82.04
2017-10-10T01:38:47.453Z,81.89
2017-10-10T01:39:52.893Z,81.93
2017-10-10T01:40:59.089Z,81.96
2017-10-10T01:42:04.880Z,81.89
2017-10-10T01:43:10.765Z,81.85
2017-10-10T01:44:16.248Z,81.83
2017-10-10T01:45:21.682Z,81.68
2017-10-10T01:46:28.237Z,81.68
2017-10-10T01:47:34.019Z,81.57
2017-10-10T01:48:39.790Z,81.55
2017-10-10T01:49:45.403Z,81.75
2017-10-10T01:50:51.169Z,81.87
2017-10-10T01:51:56.972Z,81.78
2017-10-10T01:53:03.508Z,81.79
2017-10-10T01:54:10.036Z,81.81
2017-10-10T01:55:15.840Z,81.78
2017-10-10T01:56:22.368Z,81.76
2017-10-10T01:57:28.205Z,81.70
2017-10-10T01:58:33.972Z,81.75
2017-10-10T01:59:40.166Z,81.76
2017-10-10T02:00:45.615Z,81.71
2017-10-10T02:01:51.040Z,81.83
2017-10-10T02:02:56.818Z,81.96
2017-10-10T02:04:02.586Z,82.20
2017-10-10T02:05:09.115Z,82.33
2017-10-10T02:06:14.901Z,82.27
2017-10-10T02:07:20.665Z,82.06
2017-10-10T02:08:26.438Z,82.11
2017-10-10T02:09:31.996Z,81.95
2017-10-10T02:10:38.527Z,81.92
2017-10-10T02:11:44.417Z,81.87
2017-10-10T02:12:50.192Z,81.81
2017-10-10T02:13:55.765Z,82.03
2017-10-10T02:15:01.325Z,81.99
2017-10-10T02:16:07.862Z,82.01
2017-10-10T02:17:13.813Z,81.99
2017-10-10T02:18:19.686Z,81.97
2017-10-10T02:19:25.456Z,82.21
2017-10-10T02:20:31.222Z,82.15
2017-10-10T02:21:37.000Z,82.27
2017-10-10T02:22:43.565Z,82.22
2017-10-10T02:23:50.100Z,82.36
2017-10-10T02:24:55.863Z,82.23
2017-10-10T02:26:02.449Z,82.08
2017-10-10T02:27:08.204Z,82.21
2017-10-10T02:28:14.001Z,82.41
2017-10-10T02:29:20.526Z,82.57
2017-10-10T02:30:26.289Z,82.57
2017-10-10T02:31:31.893Z,82.61
2017-10-10T02:32:37.475Z,82.80
2017-10-10T02:33:43.848Z,82.79
2017-10-10T02:34:49.621Z,83.00
2017-10-10T02:35:55.381Z,82.88
2017-10-10T02:37:01.300Z,82.90
2017-10-10T02:38:06.886Z,82.94
2017-10-10T02:39:13.071Z,82.94
2017-10-10T02:40:18.655Z,82.86
2017-10-10T02:41:24.234Z,82.77
2017-10-10T02:42:30.561Z,82.71
2017-10-10T02:43:37.093Z,82.71
2017-10-10T02:44:42.886Z,82.92
2017-10-10T02:45:49.241Z,82.93
2017-10-10T02:46:55.772Z,83.11
2017-10-10T02:48:01.561Z,83.24
2017-10-10T02:49:06.765Z,83.13
2017-10-10T02:50:12.650Z,83.03
2017-10-10T02:51:18.070Z,83.45
2017-10-10T02:52:23.861Z,83.41
2017-10-10T02:53:29.607Z,83.38
2017-10-10T02:54:35.386Z,83.40
2017-10-10T02:55:41.943Z,83.37
2017-10-10T02:56:47.716Z,83.40
2017-10-10T02:57:53.477Z,83.63
2017-10-10T02:58:59.029Z,83.55
2017-10-10T03:00:04.454Z,83.49
2017-10-10T03:01:10.240Z,83.75
2017-10-10T03:02:16.040Z,83.76
2017-10-10T03:03:21.807Z,83.89
2017-10-10T03:04:28.340Z,83.77
2017-10-10T03:05:34.118Z,83.78
2017-10-10T03:06:40.176Z,83.81
2017-10-10T03:07:45.941Z,83.86
2017-10-10T03:08:51.713Z,84.01
2017-10-10T03:09:57.479Z,83.95
2017-10-10T03:11:03.253Z,84.14
2017-10-10T03:12:08.841Z,84.03
2017-10-10T03:13:16.130Z,84.35
2017-10-10T03:14:21.705Z,84.26
2017-10-10T03:15:27.468Z,84.32
2017-10-10T03:16:33.227Z,84.25
2017-10-10T03:17:39.013Z,84.00
2017-10-10T03:18:45.338Z,84.14
2017-10-10T03:19:52.605Z,84.22
2017-10-10T03:20:59.164Z,84.28
2017-10-10T03:22:04.941Z,84.19
2017-10-10T03:23:11.501Z,84.31
2017-10-10T03:24:18.033Z,84.29
2017-10-10T03:25:23.804Z,84.04
2017-10-10T03:26:30.385Z,84.00
2017-10-10T03:27:36.019Z,84.03
2017-10-10T03:28:41.809Z,84.14
2017-10-10T03:29:47.592Z,84.45
2017-10-10T03:30:54.122Z,84.59
2017-10-10T03:32:00.537Z,84.80
2017-10-10T03:33:06.302Z,84.77
2017-10-10T03:34:12.090Z,84.78
2017-10-10T03:35:18.431Z,84.73
2017-10-10T03:36:24.965Z,84.90
2017-10-10T03:37:30.621Z,84.89
2017-10-10T03:38:37.215Z,85.28
2017-10-10T03:39:43.558Z,85.15
2017-10-10T03:40:50.162Z,85.07
2017-10-10T03:41:55.975Z,85.15
2017-10-10T03:43:01.822Z,85.02
2017-10-10T03:44:07.666Z,85.18
2017-10-10T03:45:13.468Z,85.20
2017-10-10T03:46:19.252Z,85.16
2017-10-10T03:47:25.021Z,85.09
2017-10-10T03:48:30.784Z,85.07
2017-10-10T03:49:36.673Z,85.12
2017-10-10T03:50:42.457Z,85.21
2017-10-10T03:51:48.216Z,85.41
2017-10-10T03:52:53.984Z,85.73
2017-10-10T03:54:00.505Z,85.54
2017-10-10T03:55:06.277Z,85.49
2017-10-10T03:56:12.842Z,85.65
2017-10-10T03:57:19.379Z,85.75
2017-10-10T03:58:25.140Z,85.83
2017-10-10T03:59:31.669Z,85.87
2017-10-10T04:00:37.428Z,85.88
2017-10-10T04:01:43.249Z,86.10
2017-10-10T04:02:49.044Z,85.90
2017-10-10T04:03:55.575Z,86.19
2017-10-10T04:05:01.332Z,86.17
2017-10-10T04:06:07.838Z,86.13
2017-10-10T04:07:13.673Z,86.32
2017-10-10T04:08:19.256Z,86.36
2017-10-10T04:09:24.829Z,86.47
2017-10-10T04:10:30.593Z,86.25
2017-10-10T04:11:36.170Z,86.43
2017-10-10T04:12:41.970Z,86.40
2017-10-10T04:13:47.872Z,86.17
2017-10-10T04:14:54.418Z,86.17
2017-10-10T04:16:01.733Z,85.93
2017-10-10T04:17:07.753Z,85.98
2017-10-10T04:18:14.140Z,85.87
2017-10-10T04:19:19.910Z,85.83
2017-10-10T04:20:25.673Z,85.84
2017-10-10T04:21:32.204Z,85.83
2017-10-10T04:22:37.978Z,86.06
2017-10-10T04:23:45.280Z,86.15
2017-10-10T04:24:51.644Z,86.23
2017-10-10T04:25:57.413Z,86.23
2017-10-10T04:27:03.184Z,86.29
2017-10-10T04:28:08.958Z,86.36
2017-10-10T04:29:15.509Z,86.33
2017-10-10T04:30:21.090Z,86.25
2017-10-10T04:31:26.864Z,86.21
2017-10-10T04:32:32.910Z,86.26
2017-10-10T04:33:38.699Z,86.29
2017-10-10T04:34:45.253Z,86.31
2017-10-10T04:35:51.129Z,85.97
2017-10-10T04:36:56.897Z,85.79
2017-10-10T04:38:02.469Z,85.61
2017-10-10T04:39:09.002Z,85.54
2017-10-10T04:40:14.801Z,85.59
2017-10-10T04:41:20.576Z,85.72
2017-10-10T04:42:26.368Z,85.76
2017-10-10T04:43:32.900Z,85.88
2017-10-10T04:44:38.663Z,86.16
2017-10-10T04:45:45.225Z,86.15
2017-10-10T04:46:51.753Z,85.95
2017-10-10T04:47:57.857Z,85.82
2017-10-10T04:49:03.628Z,85.86
2017-10-10T04:50:09.401Z,85.89
2017-10-10T04:51:15.287Z,85.83
2017-10-10T04:52:21.063Z,85.81
2017-10-10T04:53:26.835Z,85.84
2017-10-10T04:54:33.367Z,85.94
2017-10-10T04:55:39.142Z,85.98
2017-10-10T04:56:45.711Z,85.88
2017-10-10T04:57:52.048Z,85.68
2017-10-10T04:58:58.410Z,85.51
2017-10-10T05:00:04.181Z,85.52
2017-10-10T05:01:09.825Z,85.31
2017-10-10T05:02:15.608Z,85.24
2017-10-10T05:03:22.191Z,85.29
2017-10-10T05:04:27.948Z,85.22
2017-10-10T05:05:33.513Z,85.49
2017-10-10T05:06:39.277Z,85.60
2017-10-10T05:07:45.081Z,85.48
2017-10-10T05:08:50.854Z,85.33
2017-10-10T05:09:56.629Z,85.24
2017-10-10T05:11:02.396Z,85.15
2017-10-10T05:12:08.269Z,85.25
2017-10-10T05:13:14.071Z,85.36
2017-10-10T05:14:20.592Z,85.41
2017-10-10T05:15:26.384Z,85.36
2017-10-10T05:16:32.152Z,85.60
2017-10-10T05:17:38.057Z,85.28
2017-10-10T05:18:44.625Z,85.35
2017-10-10T05:19:51.263Z,85.18
2017-10-10T05:20:57.629Z,85.20
2017-10-10T05:22:04.749Z,85.26
2017-10-10T05:23:10.332Z,85.27
2017-10-10T05:24:17.629Z,85.30
2017-10-10T05:25:24.167Z,85.28
2017-10-10T05:26:29.957Z,85.37
2017-10-10T05:27:35.733Z,85.40
2017-10-10T05:28:41.504Z,85.29
2017-10-10T05:29:47.288Z,85.40
2017-10-10T05:30:53.053Z,85.48
2017-10-10T05:31:58.826Z,85.67
2017-10-10T05:33:04.405Z,85.61
2017-10-10T05:34:10.193Z,85.45
2017-10-10T05:35:15.638Z,85.64
2017-10-10T05:36:22.569Z,85.66
2017-10-10T05:37:28.334Z,85.65
2017-10-10T05:38:34.100Z,85.65
2017-10-10T05:39:39.693Z,85.47
2017-10-10T05:40:45.495Z,85.45
2017-10-10T05:41:51.541Z,85.22
2017-10-10T05:42:57.885Z,85.47
2017-10-10T05:44:04.423Z,85.47
2017-10-10T05:45:10.200Z,85.45
2017-10-10T05:46:15.834Z,85.41
2017-10-10T05:47:22.370Z,85.28
2017-10-10T05:48:29.452Z,85.27
2017-10-10T05:49:35.204Z,85.27
2017-10-10T05:50:41.828Z,84.98
2017-10-10T05:51:47.635Z,85.05
2017-10-10T05:52:53.455Z,85.03
2017-10-10T05:53:59.985Z,84.88
2017-10-10T05:55:05.771Z,84.96
2017-10-10T05:56:11.378Z,85.00
2017-10-10T05:57:17.976Z,85.01
2017-10-10T05:58:23.730Z,85.05
2017-10-10T05:59:29.497Z,84.94
2017-10-10T06:00:34.904Z,84.89
2017-10-10T06:01:40.674Z,84.89
2017-10-10T06:02:46.461Z,84.83
2017-10-10T06:03:52.044Z,84.77
2017-10-10T06:04:57.828Z,84.83
2017-10-10T06:06:04.417Z,84.82
2017-10-10T06:07:10.176Z,84.99
2017-10-10T06:08:15.972Z,84.76
2017-10-10T06:09:22.520Z,85.00
2017-10-10T06:10:28.109Z,84.84
2017-10-10T06:11:33.864Z,84.78
2017-10-10T06:12:39.633Z,84.78
2017-10-10T06:13:46.749Z,84.69
2017-10-10T06:14:52.527Z,84.64
2017-10-10T06:15:58.153Z,84.74
2017-10-10T06:17:03.921Z,84.74
2017-10-10T06:18:09.690Z,84.52
2017-10-10T06:19:16.241Z,84.40
2017-10-10T06:20:22.777Z,84.25
2017-10-10T06:21:28.557Z,84.31
2017-10-10T06:22:35.085Z,84.44
2017-10-10T06:23:40.649Z,84.40
2017-10-10T06:24:47.229Z,84.28
2017-10-10T06:25:52.810Z,84.04
2017-10-10T06:26:58.582Z,84.24
2017-10-10T06:28:05.108Z,84.34
2017-10-10T06:29:10.696Z,84.24
2017-10-10T06:30:17.257Z,84.23
2017-10-10T06:31:23.609Z,84.27
2017-10-10T06:32:30.149Z,84.26
2017-10-10T06:33:35.736Z,84.09
2017-10-10T06:34:41.520Z,83.96
2017-10-10T06:35:47.393Z,83.82
2017-10-10T06:36:53.930Z,83.52
2017-10-10T06:37:59.684Z,83.42
2017-10-10T06:39:05.344Z,83.20
2017-10-10T06:40:11.122Z,83.09
2017-10-10T06:41:16.905Z,82.95
2017-10-10T06:42:23.444Z,82.94
2017-10-10T06:43:29.248Z,82.80
2017-10-10T06:44:35.047Z,82.77
2017-10-10T06:45:40.805Z,82.77
2017-10-10T06:46:46.606Z,82.45
2017-10-10T06:47:52.390Z,82.56
2017-10-10T06:48:58.929Z,82.49
2017-10-10T06:50:04.705Z,82.64
2017-10-10T06:51:10.269Z,82.41
2017-10-10T06:52:16.056Z,82.22
2017-10-10T06:53:22.601Z,82.15
2017-10-10T06:54:28.157Z,82.17
2017-10-10T06:55:34.695Z,82.13
2017-10-10T06:56:40.457Z,81.93
2017-10-10T06:57:47.018Z,81.76
2017-10-10T06:58:53.549Z,81.88
2017-10-10T06:59:59.313Z,81.87
2017-10-10T07:01:05.846Z,81.59
2017-10-10T07:02:11.622Z,81.42
2017-10-10T07:03:18.173Z,81.42
2017-10-10T07:04:24.127Z,81.23
2017-10-10T07:05:30.664Z,81.09
2017-10-10T07:06:37.966Z,81.00
2017-10-10T07:07:44.538Z,80.72
2017-10-10T07:08:51.106Z,80.71
2017-10-10T07:09:56.875Z,80.51
2017-10-10T07:11:02.641Z,80.07
2017-10-10T07:12:08.417Z,79.95
2017-10-10T07:13:14.948Z,79.55
2017-10-10T07:14:20.768Z,79.27
2017-10-10T07:15:26.522Z,79.12
2017-10-10T07:16:32.296Z,78.90
2017-10-10T07:17:38.837Z,79.16
2017-10-10T07:18:44.625Z,79.06
2017-10-10T07:19:50.053Z,78.91
2017-10-10T07:20:55.824Z,78.74
2017-10-10T07:22:01.621Z,78.78
2017-10-10T07:23:08.166Z,78.72
2017-10-10T07:24:13.965Z,78.63
2017-10-10T07:25:19.412Z,78.58
2017-10-10T07:26:25.190Z,78.42
2017-10-10T07:27:31.713Z,78.45
2017-10-10T07:28:37.484Z,78.24
2017-10-10T07:29:43.110Z,78.02
2017-10-10T07:30:48.906Z,78.00
2017-10-10T07:31:54.679Z,78.08
2017-10-10T07:33:00.492Z,78.13
2017-10-10T07:34:06.258Z,78.46
2017-10-10T07:35:12.028Z,78.38
2017-10-10T07:36:17.816Z,78.57
2017-10-10T07:37:23.594Z,78.66
2017-10-10T07:38:29.369Z,78.78
2017-10-10T07:39:35.905Z,79.27
2017-10-10T07:40:41.685Z,79.55
2017-10-10T07:41:48.240Z,79.72
2017-10-10T07:42:54.024Z,79.60
2017-10-10T07:43:59.780Z,79.74
2017-10-10T07:45:05.552Z,79.62
2017-10-10T07:46:11.877Z,79.64
2017-10-10T07:47:17.691Z,79.87
2017-10-10T07:48:23.451Z,79.95
2017-10-10T07:49:29.490Z,79.96
2017-10-10T07:50:36.065Z,79.84
2017-10-10T07:51:41.851Z,79.95
2017-10-10T07:52:48.244Z,80.26
2017-10-10T07:53:53.817Z,80.42
2017-10-10T07:54:59.589Z,80.53
2017-10-10T07:56:06.117Z,80.66
2017-10-10T07:57:11.901Z,80.87
2017-10-10T07:58:18.457Z,81.03
2017-10-10T07:59:25.052Z,80.94
2017-10-10T08:00:30.871Z,80.84
2017-10-10T08:01:37.391Z,80.84
2017-10-10T08:02:43.152Z,80.87
2017-10-10T08:03:49.761Z,80.63
2017-10-10T08:04:55.521Z,80.58
2017-10-10T08:06:01.322Z,80.52
2017-10-10T08:07:07.090Z,80.61
2017-10-10T08:08:12.859Z,80.30
2017-10-10T08:09:18.654Z,80.38
2017-10-10T08:10:24.428Z,80.28
2017-10-10T08:11:30.205Z,80.05
2017-10-10T08:12:36.733Z,80.13
2017-10-10T08:13:42.330Z,79.88
2017-10-10T08:14:47.953Z,79.73
2017-10-10T08:15:54.481Z,79.51
2017-10-10T08:17:00.272Z,79.39
2017-10-10T08:18:06.033Z,79.41
2017-10-10T08:19:11.857Z,79.42
2017-10-10T08:20:17.834Z,79.50
2017-10-10T08:21:23.638Z,79.64
2017-10-10T08:22:29.463Z,79.60
2017-10-10T08:23:35.212Z,79.48
2017-10-10T08:24:41.749Z,79.53
2017-10-10T08:25:47.537Z,79.49
2017-10-10T08:26:53.307Z,79.76
2017-10-10T08:27:59.092Z,79.95
2017-10-10T08:29:05.624Z,79.86
2017-10-10T08:30:11.393Z,79.93
2017-10-10T08:31:17.940Z,80.08
2017-10-10T08:32:24.536Z,79.86
2017-10-10T08:33:30.297Z,79.77
2017-10-10T08:34:36.060Z,79.49
2017-10-10T08:35:41.637Z,79.18
2017-10-10T08:36:48.193Z,79.17
2017-10-10T08:37:54.750Z,79.48
2017-10-10T08:39:01.297Z,79.36
2017-10-10T08:40:06.881Z,79.29
2017-10-10T08:41:12.650Z,79.00
2017-10-10T08:42:18.251Z,79.37
2017-10-10T08:43:23.821Z,79.10
2017-10-10T08:44:29.583Z,79.00
2017-10-10T08:45:35.341Z,78.73
2017-10-10T08:46:41.864Z,78.74
2017-10-10T08:47:47.651Z,78.53
2017-10-10T08:48:54.186Z,78.65
2017-10-10T08:49:59.945Z,78.44
2017-10-10T08:51:05.741Z,78.78
2017-10-10T08:52:11.831Z,78.64
2017-10-10T08:53:17.634Z,78.74
2017-10-10T08:54:23.462Z,78.55
2017-10-10T08:55:29.293Z,78.61
2017-10-10T08:56:35.054Z,78.82
2017-10-10T08:57:40.824Z,78.85
2017-10-10T08:58:46.617Z,78.85
2017-10-10T08:59:52.377Z,78.85
2017-10-10T09:00:58.173Z,78.48
2017-10-10T09:02:04.974Z,78.30
2017-10-10T09:03:10.756Z,78.10
2017-10-10T09:04:16.564Z,77.91
2017-10-10T09:05:23.114Z,77.84
2017-10-10T09:06:28.874Z,77.84
2017-10-10T09:07:34.658Z,77.68
2017-10-10T09:08:40.417Z,77.49
2017-10-10T09:09:47.002Z,77.34
2017-10-10T09:10:52.769Z,77.26
2017-10-10T09:11:58.541Z,77.00
2017-10-10T09:13:04.312Z,76.98
2017-10-10T09:14:10.080Z,76.87
2017-10-10T09:15:15.861Z,76.67
2017-10-10T09:16:21.621Z,76.59
2017-10-10T09:17:28.181Z,76.69
2017-10-10T09:18:34.796Z,76.36
2017-10-10T09:19:40.589Z,76.00
2017-10-10T09:20:47.148Z,75.80
2017-10-10T09:21:53.729Z,75.66
2017-10-10T09:22:59.304Z,75.51
2017-10-10T09:24:05.071Z,75.11
2017-10-10T09:25:10.834Z,75.05
2017-10-10T09:26:17.389Z,74.47
2017-10-10T09:27:23.931Z,74.26
2017-10-10T09:28:29.696Z,74.06
2017-10-10T09:29:36.232Z,73.87
2017-10-10T09:30:43.504Z,73.74
2017-10-10T09:31:49.305Z,73.40
2017-10-10T09:32:55.071Z,73.07
2017-10-10T09:34:00.843Z,72.78
2017-10-10T09:35:06.680Z,72.17
2017-10-10T09:36:12.237Z,71.69
2017-10-10T09:37:18.829Z,71.42
2017-10-10T09:38:24.606Z,71.24
2017-10-10T09:39:30.420Z,70.99
2017-10-10T09:40:36.181Z,70.76
2017-10-10T09:41:41.960Z,71.00
2017-10-10T09:42:48.329Z,70.64
2017-10-10T09:43:53.909Z,70.32
2017-10-10T09:44:59.524Z,70.30
2017-10-10T09:46:05.315Z,70.12
2017-10-10T09:47:11.088Z,70.44
2017-10-10T09:48:17.657Z,70.69
2017-10-10T09:49:23.429Z,70.41
2017-10-10T09:50:29.200Z,70.13
2017-10-10T09:51:35.001Z,70.23
2017-10-10T09:52:40.764Z,70.08
2017-10-10T09:53:46.560Z,70.25
2017-10-10T09:54:52.328Z,70.08
2017-10-10T09:55:58.124Z,70.07
2017-10-10T09:57:04.721Z,69.97
2017-10-10T09:58:10.493Z,70.09
2017-10-10T09:59:16.292Z,70.00
2017-10-10T10:00:22.062Z,69.67
2017-10-10T10:01:27.824Z,69.49
2017-10-10T10:02:33.597Z,69.39
2017-10-10T10:03:39.930Z,69.19
2017-10-10T10:04:46.047Z,68.81
2017-10-10T10:05:51.814Z,69.04
2017-10-10T10:06:57.581Z,68.89
2017-10-10T10:08:03.368Z,68.38
2017-10-10T10:09:09.012Z,68.43
2017-10-10T10:10:14.593Z,68.67
2017-10-10T10:11:20.943Z,68.74
2017-10-10T10:12:28.234Z,69.04
2017-10-10T10:13:33.817Z,68.87
2017-10-10T10:14:39.626Z,69.10
2017-10-10T10:15:46.188Z,68.44
2017-10-10T10:16:52.805Z,68.48
2017-10-10T10:17:58.584Z,68.57
2017-10-10T10:19:05.121Z,68.56
2017-10-10T10:20:10.889Z,68.72
2017-10-10T10:21:16.690Z,68.83
2017-10-10T10:22:22.453Z,69.21
2017-10-10T10:23:28.244Z,69.48
2017-10-10T10:24:34.055Z,69.60
2017-10-10T10:25:40.593Z,69.62
2017-10-10T10:26:47.884Z,69.76
2017-10-10T10:27:53.654Z,69.81
2017-10-10T10:28:59.423Z,69.64
2017-10-10T10:30:04.984Z,69.34
2017-10-10T10:31:10.762Z,69.31
2017-10-10T10:32:16.868Z,69.24
2017-10-10T10:33:22.616Z,69.20
2017-10-10T10:34:28.389Z,69.58
2017-10-10T10:35:35.152Z,69.59
2017-10-10T10:36:41.737Z,69.44
2017-10-10T10:37:47.341Z,69.64
2017-10-10T10:38:52.943Z,70.03
2017-10-10T10:39:58.717Z,69.83
2017-10-10T10:41:05.992Z,69.64
2017-10-10T10:42:11.765Z,69.53
2017-10-10T10:43:18.443Z,69.65
2017-10-10T10:44:24.196Z,69.79
2017-10-10T10:45:29.949Z,69.79
2017-10-10T10:46:35.722Z,69.68
2017-10-10T10:47:41.480Z,69.63
2017-10-10T10:48:48.033Z,69.64
2017-10-10T10:49:53.819Z,69.51
2017-10-10T10:51:00.409Z,69.38
2017-10-10T10:52:06.157Z,69.58
2017-10-10T10:53:11.909Z,69.05
2017-10-10T10:54:17.742Z,68.90
2017-10-10T10:55:23.493Z,69.09
2017-10-10T10:56:29.242Z,69.32
2017-10-10T10:57:35.758Z,69.42
2017-10-10T10:58:41.302Z,69.57
2017-10-10T10:59:47.098Z,69.46
2017-10-10T11:00:53.615Z,69.28
2017-10-10T11:02:00.146Z,69.38
2017-10-10T11:03:05.901Z,69.64
2017-10-10T11:04:11.655Z,69.96
2017-10-10T11:05:17.510Z,70.19
2017-10-10T11:06:23.274Z,70.46
2017-10-10T11:07:29.016Z,70.64
2017-10-10T11:08:34.769Z,70.81
2017-10-10T11:09:41.305Z,70.86
2017-10-10T11:10:47.087Z,70.83
2017-10-10T11:11:53.610Z,70.92
2017-10-10T11:13:00.120Z,71.16
2017-10-10T11:14:05.869Z,71.22
2017-10-10T11:15:11.430Z,71.24
2017-10-10T11:16:17.202Z,71.61
2017-10-10T11:17:22.958Z,71.56
2017-10-10T11:18:29.489Z,71.44
2017-10-10T11:19:35.232Z,71.38
2017-10-10T11:20:41.011Z,71.53
2017-10-10T11:21:47.573Z,71.46
2017-10-10T11:22:54.100Z,71.27
2017-10-10T11:23:59.844Z,71.49
2017-10-10T11:25:05.612Z,71.72
2017-10-10T11:26:11.926Z,71.84
2017-10-10T11:27:17.695Z,72.09
2017-10-10T11:28:24.209Z,71.89
2017-10-10T11:29:29.969Z,71.44
2017-10-10T11:30:35.709Z,71.37
2017-10-10T11:31:41.460Z,70.96
2017-10-10T11:32:47.244Z,71.05
2017-10-10T11:33:52.814Z,71.35
2017-10-10T11:34:58.382Z,71.56
2017-10-10T11:36:03.945Z,71.45
2017-10-10T11:37:09.698Z,71.54
2017-10-10T11:38:15.503Z,71.79
2017-10-10T11:39:21.269Z,71.94
2017-10-10T11:40:27.033Z,72.12
2017-10-10T11:41:32.801Z,72.08
2017-10-10T11:42:38.565Z,72.04
2017-10-10T11:43:44.352Z,72.51
2017-10-10T11:44:50.100Z,72.31
2017-10-10T11:45:55.858Z,72.29
2017-10-10T11:47:01.607Z,72.54
2017-10-10T11:48:07.347Z,72.51
2017-10-10T11:49:13.142Z,72.54
2017-10-10T11:50:19.680Z,72.93
2017-10-10T11:51:26.193Z,73.08
2017-10-10T11:52:31.940Z,73.27
2017-10-10T11:53:37.544Z,73.77
2017-10-10T11:54:44.078Z,74.07
2017-10-10T11:55:49.861Z,74.11
2017-10-10T11:56:55.845Z,74.35
2017-10-10T11:58:01.604Z,74.46
2017-10-10T11:59:08.122Z,74.51
2017-10-10T12:00:13.956Z,74.84
2017-10-10T12:01:19.698Z,74.84
2017-10-10T12:02:25.440Z,75.09
2017-10-10T12:03:31.192Z,75.44
2017-10-10T12:04:36.950Z,75.19
2017-10-10T12:05:42.820Z,75.22
2017-10-10T12:06:48.584Z,75.32
2017-10-10T12:07:55.102Z,75.21
2017-10-10T12:09:01.100Z,75.22
2017-10-10T12:10:06.671Z,75.21
2017-10-10T12:11:12.883Z,75.54
2017-10-10T12:12:19.239Z,75.37
2017-10-10T12:13:25.810Z,75.46
2017-10-10T12:14:31.388Z,75.46
2017-10-10T12:15:37.144Z,75.58
2017-10-10T12:16:43.685Z,75.58
2017-10-10T12:17:49.455Z,75.91
2017-10-10T12:18:56.697Z,75.80
2017-10-10T12:20:02.472Z,75.79
2017-10-10T12:21:08.211Z,75.63
2017-10-10T12:22:13.988Z,75.67
2017-10-10T12:23:19.745Z,75.61
2017-10-10T12:24:25.537Z,75.62
2017-10-10T12:25:32.066Z,75.71
2017-10-10T12:26:37.840Z,75.75
2017-10-10T12:27:44.397Z,75.75
2017-10-10T12:28:50.928Z,75.86
2017-10-10T12:29:56.724Z,75.71
2017-10-10T12:31:02.515Z,75.49
2017-10-10T12:32:08.312Z,75.55
2017-10-10T12:33:14.092Z,75.59
2017-10-10T12:34:19.664Z,75.72
2017-10-10T12:35:26.194Z,75.57
2017-10-10T12:36:31.776Z,75.35
2017-10-10T12:37:37.707Z,75.37
2017-10-10T12:38:43.493Z,75.26
2017-10-10T12:39:49.246Z,75.53
2017-10-10T12:40:55.006Z,75.20
2017-10-10T12:42:00.803Z,75.00
2017-10-10T12:43:06.574Z,74.92
2017-10-10T12:44:12.370Z,74.71
2017-10-10T12:45:18.722Z,74.03
2017-10-10T12:46:25.336Z,73.90
2017-10-10T12:47:31.103Z,73.62
2017-10-10T12:48:36.866Z,73.41
2017-10-10T12:49:43.404Z,73.19
2017-10-10T12:50:49.158Z,72.84
2017-10-10T12:51:54.913Z,72.59
2017-10-10T12:53:01.424Z,72.60
2017-10-10T12:54:07.189Z,72.59
2017-10-10T12:55:12.980Z,72.69
2017-10-10T12:56:18.748Z,72.75
2017-10-10T12:57:24.359Z,73.03
2017-10-10T12:58:29.953Z,72.81
2017-10-10T12:59:35.521Z,72.51
2017-10-10T13:00:41.325Z,72.63
2017-10-10T13:01:47.152Z,72.78
2017-10-10T13:02:52.717Z,72.80
2017-10-10T13:03:58.952Z,72.74
2017-10-10T13:05:05.047Z,73.11
2017-10-10T13:06:10.632Z,72.89
2017-10-10T13:07:16.661Z,72.80
2017-10-10T13:08:22.411Z,72.74
2017-10-10T13:09:28.173Z,72.59
2017-10-10T13:10:33.930Z,72.55
2017-10-10T13:11:39.718Z,72.81
2017-10-10T13:12:45.546Z,72.38
2017-10-10T13:13:51.295Z,72.07
2017-10-10T13:14:57.064Z,71.82
2017-10-10T13:16:02.850Z,71.80
2017-10-10T13:17:09.402Z,71.45
2017-10-10T13:18:15.167Z,71.13
2017-10-10T13:19:21.680Z,70.42
2017-10-10T13:20:27.459Z,70.49
2017-10-10T13:21:33.986Z,70.50
2017-10-10T13:22:39.766Z,70.93
2017-10-10T13:23:46.089Z,71.11
2017-10-10T13:24:51.856Z,71.37
2017-10-10T13:25:58.382Z,71.58
2017-10-10T13:27:03.903Z,71.67
2017-10-10T13:28:09.679Z,72.30
2017-10-10T13:29:16.201Z,72.53
2017-10-10T13:30:21.266Z,72.90
2017-10-10T13:31:27.801Z,72.94
2017-10-10T13:32:33.576Z,73.21
2017-10-10T13:33:40.144Z,73.06
2017-10-10T13:34:46.046Z,73.06
2017-10-10T13:35:51.805Z,73.16
2017-10-10T13:36:56.875Z,73.00
2017-10-10T13:38:01.962Z,73.08
2017-10-10T13:39:07.752Z,73.17
2017-10-10T13:40:13.501Z,73.36
2017-10-10T13:41:19.284Z,73.29
2017-10-10T13:42:25.100Z,73.00
2017-10-10T13:43:31.909Z,72.83
2017-10-10T13:44:38.486Z,72.51
2017-10-10T13:45:44.534Z,72.76
2017-10-10T13:46:50.331Z,72.57
2017-10-10T13:47:56.099Z,72.29
2017-10-10T13:49:02.454Z,72.23
2017-10-10T13:50:09.004Z,72.15
2017-10-10T13:51:14.597Z,71.96
2017-10-10T13:52:20.337Z,71.77
2017-10-10T13:53:26.086Z,72.16
2017-10-10T13:54:31.845Z,72.20
2017-10-10T13:55:37.661Z,72.09
2017-10-10T13:56:43.028Z,72.17
2017-10-10T13:57:48.780Z,72.06
2017-10-10T13:58:54.553Z,71.93
2017-10-10T14:00:00.117Z,71.88
2017-10-10T14:01:05.902Z,71.90
2017-10-10T14:02:11.658Z,71.69
2017-10-10T14:03:18.177Z,71.64
2017-10-10T14:04:23.952Z,71.74
2017-10-10T14:05:30.533Z,71.99
2017-10-10T14:06:36.313Z,72.03
2017-10-10T14:07:42.073Z,72.15
2017-10-10T14:08:47.850Z,72.52
2017-10-10T14:09:54.521Z,72.87